Time;durP1;ratioP1;P1;durP2;ratioP2;P2;SDS_P1;SDS_P2;PMS_P1;PMS_P2;Temp;Humidity;BMP_temperature;BMP_pressure;BME280_temperature;BME280_humidity;BME280_pressure;Samples;Min_cycle;Max_cycle;Signal;HPM_P1;HPM_P2
2023/01/23 00:01:19;;;;;;;70.90;31.38;;;3.70;99.90;;;;;;5050060;28;20108;-73
2023/01/23 00:03:45;;;;;;;63.63;28.20;;;3.70;99.90;;;;;;5043485;28;20557;-73
2023/01/23 00:06:13;;;;;;;62.38;30.48;;;3.70;99.90;;;;;;5047496;28;20108;-72
2023/01/23 00:08:39;;;;;;;61.17;29.25;;;3.70;99.90;;;;;;5043466;28;20024;-73
2023/01/23 00:11:06;;;;;;;70.18;30.02;;;3.70;99.90;;;;;;5043131;28;20032;-73
2023/01/23 00:13:33;;;;;;;66.45;29.42;;;3.70;99.90;;;;;;5043285;28;20017;-73
2023/01/23 00:16:06;;;;;;;66.00;29.70;;;3.70;99.90;;;;;;5042993;28;20127;-73
2023/01/23 00:18:31;;;;;;;64.85;28.77;;;3.70;99.90;;;;;;5043282;28;20522;-73
2023/01/23 00:20:57;;;;;;;67.25;30.25;;;3.70;99.90;;;;;;5042562;28;20119;-73
2023/01/23 00:23:23;;;;;;;71.50;31.25;;;3.70;99.90;;;;;;5045346;28;20151;-73
2023/01/23 00:25:49;;;;;;;73.03;30.67;;;3.70;99.90;;;;;;5048893;28;20032;-73
2023/01/23 00:28:14;;;;;;;71.15;30.98;;;3.70;99.90;;;;;;5044303;28;20160;-74
2023/01/23 00:30:40;;;;;;;71.00;31.88;;;3.70;99.90;;;;;;5042402;28;20052;-73
2023/01/23 00:33:05;;;;;;;68.40;31.33;;;3.70;99.90;;;;;;5043613;28;20106;-73
2023/01/23 00:35:33;;;;;;;77.60;31.70;;;3.70;99.90;;;;;;5042054;28;20028;-73
2023/01/23 00:37:59;;;;;;;73.90;30.88;;;3.70;99.90;;;;;;5050499;28;20029;-72
2023/01/23 00:40:25;;;;;;;65.85;31.30;;;3.70;99.90;;;;;;5043448;28;20036;-73
2023/01/23 00:42:50;;;;;;;62.67;30.67;;;3.70;99.90;;;;;;5043612;28;20405;-72
2023/01/23 00:45:16;;;;;;;75.90;31.58;;;3.70;99.90;;;;;;5044257;28;20433;-73
2023/01/23 00:47:42;;;;;;;72.55;31.85;;;3.70;99.90;;;;;;5041839;28;20024;-73
2023/01/23 00:50:08;;;;;;;70.82;31.40;;;3.70;99.90;;;;;;5042608;28;20477;-73
2023/01/23 00:52:34;;;;;;;71.53;32.40;;;3.70;99.90;;;;;;5043155;28;20095;-73
2023/01/23 00:54:59;;;;;;;76.10;31.45;;;3.70;99.90;;;;;;5045030;28;20017;-73
2023/01/23 00:57:26;;;;;;;75.80;31.77;;;3.60;99.90;;;;;;5040868;28;20022;-73
2023/01/23 00:59:52;;;;;;;72.88;31.98;;;3.60;99.90;;;;;;5049273;28;20040;-73
2023/01/23 01:02:17;;;;;;;79.60;33.63;;;3.60;99.90;;;;;;5042258;28;20040;-73
2023/01/23 01:04:43;;;;;;;84.15;35.50;;;3.60;99.90;;;;;;5050423;28;20025;-73
2023/01/23 01:07:09;;;;;;;72.82;30.67;;;3.60;99.90;;;;;;5042298;28;20347;-73
2023/01/23 01:09:34;;;;;;;78.63;32.63;;;3.70;99.90;;;;;;5041947;28;20021;-73
2023/01/23 01:12:00;;;;;;;70.25;31.70;;;3.70;99.90;;;;;;5043127;28;20025;-73
2023/01/23 01:14:25;;;;;;;74.85;33.17;;;3.70;99.90;;;;;;5043716;28;20465;-73
2023/01/23 01:16:51;;;;;;;77.22;32.65;;;3.70;99.90;;;;;;5050335;28;20491;-73
2023/01/23 01:19:17;;;;;;;78.95;32.15;;;3.60;99.90;;;;;;5052460;28;20163;-74
2023/01/23 01:21:43;;;;;;;77.18;33.45;;;3.60;99.90;;;;;;5038234;28;20481;-73
2023/01/23 01:24:10;;;;;;;76.03;33.78;;;3.70;99.90;;;;;;5032703;28;20021;-73
2023/01/23 01:26:36;;;;;;;82.05;31.48;;;3.70;99.90;;;;;;5054627;28;20028;-73
2023/01/23 01:29:02;;;;;;;70.95;32.33;;;3.70;99.90;;;;;;5072571;28;20024;-73
2023/01/23 01:31:28;;;;;;;70.45;31.00;;;3.70;99.90;;;;;;5056820;28;20159;-74
2023/01/23 01:33:53;;;;;;;76.97;32.65;;;3.70;99.90;;;;;;5052223;28;20052;-73
2023/01/23 01:36:21;;;;;;;76.40;33.28;;;3.70;99.90;;;;;;5044641;28;20034;-73
2023/01/23 01:38:47;;;;;;;81.28;35.83;;;3.80;99.90;;;;;;5033100;28;20101;-72
2023/01/23 01:41:14;;;;;;;81.78;34.00;;;3.70;99.90;;;;;;5048319;28;20108;-73
2023/01/23 01:43:40;;;;;;;86.53;35.13;;;3.70;99.90;;;;;;5051283;28;20052;-73
2023/01/23 01:46:09;;;;;;;82.38;33.53;;;3.80;99.90;;;;;;5052503;28;20040;-73
2023/01/23 01:48:52;;;;;;;81.68;36.80;;;3.80;99.90;;;;;;5050625;28;20048;-73
2023/01/23 01:51:25;;;;;;;78.40;35.47;;;3.80;99.90;;;;;;5051434;28;20354;-72
2023/01/23 01:54:24;;;;;;;76.50;33.17;;;3.80;99.90;;;;;;5030443;28;20021;-72
2023/01/23 01:57:21;;;;;;;71.30;33.05;;;3.70;99.90;;;;;;5032057;28;20024;-72
2023/01/23 01:59:58;;;;;;;78.82;32.20;;;3.70;99.90;;;;;;5032267;28;20034;-72
2023/01/23 02:02:27;;;;;;;76.07;32.78;;;3.70;99.90;;;;;;5031222;28;20076;-73
2023/01/23 02:05:05;;;;;;;76.90;32.78;;;3.70;99.90;;;;;;5030713;28;20034;-72
2023/01/23 02:07:39;;;;;;;68.32;29.52;;;3.70;99.90;;;;;;5053455;28;20416;-72
2023/01/23 02:10:07;;;;;;;81.80;31.90;;;3.80;99.90;;;;;;5049342;28;20028;-72
2023/01/23 02:12:34;;;;;;;74.18;33.03;;;3.80;99.90;;;;;;5052563;28;20040;-74
2023/01/23 02:15:04;;;;;;;73.35;31.45;;;3.80;99.90;;;;;;5052101;28;20119;-72
2023/01/23 02:17:31;;;;;;;81.65;33.25;;;3.80;99.90;;;;;;5051132;28;20031;-72
2023/01/23 02:20:19;;;;;;;77.72;30.73;;;3.80;99.90;;;;;;5052377;28;20432;-72
2023/01/23 02:22:57;;;;;;;84.13;32.75;;;3.80;99.90;;;;;;5051469;28;20580;-73
2023/01/23 02:25:42;;;;;;;77.93;32.60;;;3.80;99.90;;;;;;5041990;28;20036;-72
2023/01/23 02:28:08;;;;;;;81.90;33.30;;;3.80;99.90;;;;;;5040676;28;20028;-73
2023/01/23 02:30:35;;;;;;;80.20;33.28;;;3.70;99.90;;;;;;5075988;28;20476;-72
2023/01/23 02:33:27;;;;;;;75.30;33.58;;;3.70;99.90;;;;;;5076028;28;20120;-72
2023/01/23 02:35:54;;;;;;;83.40;34.13;;;3.70;99.90;;;;;;5075158;28;20039;-73
2023/01/23 02:38:24;;;;;;;81.68;33.83;;;3.70;99.90;;;;;;5075756;28;20027;-72
2023/01/23 02:40:51;;;;;;;78.22;30.20;;;3.70;99.90;;;;;;5047171;28;20492;-72
2023/01/23 02:43:20;;;;;;;67.85;30.27;;;3.80;99.90;;;;;;5036033;28;20021;-72
2023/01/23 02:45:46;;;;;;;76.45;32.10;;;3.80;99.90;;;;;;5061772;28;20123;-73
2023/01/23 02:48:12;;;;;;;79.45;32.45;;;3.80;99.90;;;;;;5075742;28;20469;-73
2023/01/23 02:50:38;;;;;;;77.35;31.48;;;3.80;99.90;;;;;;5075759;28;20020;-72
2023/01/23 02:53:05;;;;;;;76.78;31.45;;;3.70;99.90;;;;;;5056603;28;20495;-72
2023/01/23 02:55:32;;;;;;;86.60;32.80;;;3.70;99.90;;;;;;5054173;28;20021;-72
2023/01/23 03:00:42;;;;;;;69.20;30.23;;;3.70;99.90;;;;;;5055440;28;20064;-72
2023/01/23 03:03:08;;;;;;;79.47;32.38;;;3.70;99.90;;;;;;5054020;28;20041;-72
2023/01/23 03:05:34;;;;;;;73.82;32.67;;;3.70;99.90;;;;;;5053798;28;20036;-73
2023/01/23 03:07:59;;;;;;;100.35;36.17;;;3.70;99.90;;;;;;5054623;28;20025;-72
2023/01/23 03:10:25;;;;;;;82.45;33.90;;;3.70;99.90;;;;;;5038695;28;20025;-72
2023/01/23 03:12:51;;;;;;;81.10;31.75;;;3.60;99.90;;;;;;5034217;28;20025;-73
2023/01/23 03:15:16;;;;;;;76.10;31.23;;;3.70;99.90;;;;;;5034423;28;20033;-72
2023/01/23 03:17:42;;;;;;;78.63;32.15;;;3.70;99.90;;;;;;5038930;28;20021;-73
2023/01/23 03:20:08;;;;;;;84.10;31.73;;;3.80;99.90;;;;;;5053408;28;20483;-73
2023/01/23 03:22:34;;;;;;;82.70;32.85;;;3.80;99.90;;;;;;5054781;28;20108;-72
2023/01/23 03:25:00;;;;;;;82.70;30.52;;;3.80;99.90;;;;;;5054727;28;20158;-72
2023/01/23 03:27:25;;;;;;;79.32;31.15;;;3.90;99.90;;;;;;5054938;28;20067;-72
2023/01/23 03:32:37;;;;;;;77.60;31.58;;;3.90;99.90;;;;;;5054674;28;20068;-73
2023/01/23 03:35:03;;;;;;;87.88;31.73;;;3.90;99.90;;;;;;5055285;28;20516;-73
2023/01/23 03:37:30;;;;;;;88.63;31.90;;;3.80;99.90;;;;;;5053344;28;20045;-73
2023/01/23 03:42:40;;;;;;;87.90;32.55;;;3.80;99.90;;;;;;5035113;28;20036;-72
2023/01/23 03:45:06;;;;;;;81.10;33.35;;;3.90;99.90;;;;;;5033440;28;20381;-72
2023/01/23 03:47:32;;;;;;;83.80;32.42;;;3.90;99.90;;;;;;5034770;28;20030;-72
2023/01/23 03:49:57;;;;;;;81.32;31.85;;;3.90;99.90;;;;;;5047559;28;20608;-72
2023/01/23 03:52:23;;;;;;;84.63;32.83;;;3.90;99.90;;;;;;5037750;28;20029;-72
2023/01/23 03:54:49;;;;;;;91.05;35.10;;;3.90;99.90;;;;;;5034928;28;20044;-73
2023/01/23 03:57:14;;;;;;;81.35;33.60;;;3.90;99.90;;;;;;5073407;28;20460;-72
2023/01/23 03:59:40;;;;;;;79.53;34.50;;;3.90;99.90;;;;;;5074505;28;20021;-72
2023/01/23 04:02:06;;;;;;;87.60;35.60;;;3.90;99.90;;;;;;5074658;28;20385;-72
2023/01/23 04:04:32;;;;;;;94.55;34.05;;;3.90;99.90;;;;;;5073357;28;20408;-72
2023/01/23 04:06:58;;;;;;;78.88;31.95;;;3.90;99.90;;;;;;5052321;28;20431;-72
2023/01/23 04:09:26;;;;;;;96.57;34.42;;;3.90;99.90;;;;;;5052307;28;20021;-72
2023/01/23 04:11:53;;;;;;;94.60;35.83;;;3.90;99.90;;;;;;5051739;28;20040;-72
2023/01/23 04:14:20;;;;;;;74.53;32.42;;;3.90;99.90;;;;;;5053944;28;20021;-72
2023/01/23 04:16:45;;;;;;;88.05;35.80;;;3.90;99.90;;;;;;5058635;28;20035;-72
2023/01/23 04:19:11;;;;;;;77.22;31.15;;;3.90;99.90;;;;;;5037072;28;20029;-72
2023/01/23 04:21:36;;;;;;;85.57;33.05;;;3.90;99.90;;;;;;5053899;28;20024;-72
2023/01/23 04:24:02;;;;;;;85.82;33.08;;;3.90;99.90;;;;;;5053684;28;20520;-72
2023/01/23 04:26:28;;;;;;;80.55;34.10;;;3.90;99.90;;;;;;5048235;28;20040;-72
2023/01/23 04:28:53;;;;;;;83.60;34.00;;;3.90;99.90;;;;;;5053275;28;20484;-72
2023/01/23 04:31:19;;;;;;;75.78;31.48;;;3.90;99.90;;;;;;5053875;28;20128;-72
2023/01/23 04:33:44;;;;;;;82.05;33.45;;;3.90;99.90;;;;;;5053807;28;20032;-72
2023/01/23 04:36:12;;;;;;;81.32;32.70;;;3.90;99.90;;;;;;5053449;28;20450;-72
2023/01/23 04:38:38;;;;;;;84.78;33.92;;;4.00;99.90;;;;;;5053753;28;20071;-72
2023/01/23 04:41:04;;;;;;;88.97;33.88;;;3.90;99.90;;;;;;5052534;28;20037;-71
2023/01/23 04:43:30;;;;;;;89.65;34.25;;;3.90;99.90;;;;;;5058348;28;20557;-72
2023/01/23 04:45:56;;;;;;;86.32;33.90;;;3.90;99.90;;;;;;5073352;28;20061;-72
2023/01/23 04:48:23;;;;;;;80.30;31.95;;;4.00;99.90;;;;;;5058410;28;20029;-72
2023/01/23 04:50:49;;;;;;;86.60;34.95;;;3.90;99.90;;;;;;5050526;28;20513;-72
2023/01/23 04:53:15;;;;;;;75.20;30.52;;;3.80;99.90;;;;;;5044133;28;20469;-72
2023/01/23 04:55:41;;;;;;;76.68;32.53;;;3.90;99.90;;;;;;5049927;28;20020;-72
2023/01/23 04:58:10;;;;;;;72.03;30.90;;;3.90;99.90;;;;;;5054249;28;20028;-72
2023/01/23 05:00:36;;;;;;;74.95;31.75;;;3.90;99.90;;;;;;5050717;28;20025;-72
2023/01/23 05:03:01;;;;;;;78.00;32.47;;;3.90;99.90;;;;;;5052702;28;20455;-72
2023/01/23 05:05:27;;;;;;;75.55;30.70;;;3.90;99.90;;;;;;5051366;28;20497;-72
2023/01/23 05:07:52;;;;;;;82.22;31.90;;;3.90;99.90;;;;;;5052105;28;20025;-72
2023/01/23 05:10:18;;;;;;;80.63;31.70;;;3.90;99.90;;;;;;5051545;28;20033;-72
2023/01/23 05:12:44;;;;;;;80.53;32.42;;;3.90;99.90;;;;;;5033029;28;20071;-72
2023/01/23 05:15:10;;;;;;;86.80;33.13;;;3.90;99.90;;;;;;5033166;28;20104;-72
2023/01/23 05:17:36;;;;;;;83.40;34.22;;;4.00;99.90;;;;;;5032441;28;20470;-72
2023/01/23 05:20:02;;;;;;;82.88;33.80;;;3.90;99.90;;;;;;5032970;28;20043;-72
2023/01/23 05:22:27;;;;;;;78.20;33.80;;;3.90;99.90;;;;;;5033009;28;20044;-72
2023/01/23 05:24:53;;;;;;;79.95;33.05;;;4.00;99.90;;;;;;5033775;28;20025;-72
2023/01/23 05:27:18;;;;;;;81.20;33.15;;;3.90;99.90;;;;;;5035098;28;20025;-72
2023/01/23 05:29:44;;;;;;;90.20;34.05;;;3.90;99.90;;;;;;5065368;28;20109;-72
2023/01/23 05:32:09;;;;;;;76.18;33.30;;;3.90;99.90;;;;;;5072684;28;20040;-72
2023/01/23 05:34:35;;;;;;;90.85;34.05;;;3.90;99.90;;;;;;5054443;28;20033;-72
2023/01/23 05:37:01;;;;;;;89.45;34.58;;;3.90;99.90;;;;;;5052657;28;20048;-72
2023/01/23 05:39:26;;;;;;;86.97;35.90;;;3.90;99.90;;;;;;5052857;28;20029;-72
2023/01/23 05:41:52;;;;;;;81.47;34.30;;;3.90;99.90;;;;;;5052599;28;20025;-72
2023/01/23 05:44:18;;;;;;;85.43;34.97;;;4.00;99.90;;;;;;5058401;28;20012;-72
2023/01/23 05:46:43;;;;;;;80.93;32.63;;;3.90;99.90;;;;;;5072728;28;20028;-72
2023/01/23 05:49:09;;;;;;;86.18;32.95;;;4.00;99.90;;;;;;5055744;28;20031;-72
2023/01/23 05:51:35;;;;;;;90.65;35.33;;;3.90;99.90;;;;;;5052550;28;20029;-72
2023/01/23 05:54:01;;;;;;;90.07;36.22;;;4.00;99.90;;;;;;5052414;28;20032;-72
2023/01/23 05:56:27;;;;;;;85.53;34.85;;;4.00;99.90;;;;;;5034703;28;20025;-72
2023/01/23 05:58:53;;;;;;;87.88;34.85;;;4.00;99.90;;;;;;5035143;28;20409;-72
2023/01/23 06:01:19;;;;;;;77.35;34.00;;;4.00;99.90;;;;;;5072214;28;20032;-72
2023/01/23 06:03:45;;;;;;;88.28;35.58;;;3.90;99.90;;;;;;5070975;28;20374;-72
2023/01/23 06:06:10;;;;;;;86.60;33.90;;;3.90;99.90;;;;;;5071743;28;20029;-71
2023/01/23 06:08:36;;;;;;;75.22;34.92;;;3.90;99.90;;;;;;5052318;28;20454;-71
2023/01/23 06:11:02;;;;;;;78.22;30.80;;;3.90;99.90;;;;;;5052352;28;20025;-73
2023/01/23 06:13:28;;;;;;;83.47;33.08;;;3.80;99.90;;;;;;5052152;28;20017;-72
2023/01/23 06:15:54;;;;;;;83.53;31.23;;;3.80;99.90;;;;;;5071498;28;20025;-72
2023/01/23 06:18:20;;;;;;;89.65;34.42;;;3.80;99.90;;;;;;5071899;28;20032;-72
2023/01/23 06:20:46;;;;;;;87.10;34.97;;;3.90;99.90;;;;;;5072646;28;20031;-71
2023/01/23 06:23:12;;;;;;;78.70;32.67;;;3.70;99.90;;;;;;5052006;28;20047;-72
2023/01/23 06:25:38;;;;;;;81.40;33.85;;;3.70;99.90;;;;;;5050019;28;20039;-72
2023/01/23 06:28:03;;;;;;;81.78;32.90;;;3.80;99.90;;;;;;5052292;28;20025;-72
2023/01/23 06:30:29;;;;;;;95.07;34.03;;;3.80;99.90;;;;;;5051784;28;20527;-72
2023/01/23 06:32:55;;;;;;;83.05;35.08;;;3.70;99.90;;;;;;5055727;28;20039;-72
2023/01/23 06:35:21;;;;;;;82.43;34.38;;;3.80;99.90;;;;;;5039888;28;20090;-72
2023/01/23 06:37:46;;;;;;;85.32;35.45;;;3.70;99.90;;;;;;5039544;28;20029;-71
2023/01/23 06:40:12;;;;;;;86.78;32.35;;;3.70;99.90;;;;;;5041515;28;20107;-72
2023/01/23 06:42:42;;;;;;;80.20;33.50;;;3.60;99.90;;;;;;5052097;28;20021;-72
2023/01/23 06:45:09;;;;;;;77.65;33.40;;;3.70;99.90;;;;;;5050237;28;20030;-71
2023/01/23 06:47:35;;;;;;;82.43;33.30;;;3.70;99.90;;;;;;5051858;28;20032;-72
2023/01/23 06:50:01;;;;;;;86.35;34.08;;;3.80;99.90;;;;;;5051078;28;20036;-72
2023/01/23 06:52:28;;;;;;;85.80;34.92;;;3.80;99.90;;;;;;5052071;28;20480;-73
2023/01/23 06:54:53;;;;;;;68.72;29.55;;;3.80;99.90;;;;;;5047143;28;20518;-72
2023/01/23 06:57:19;;;;;;;80.80;32.50;;;3.90;99.90;;;;;;5032024;28;20133;-72
2023/01/23 06:59:45;;;;;;;75.95;32.25;;;3.90;99.90;;;;;;5030812;28;20025;-72
2023/01/23 07:02:11;;;;;;;72.00;32.67;;;3.90;99.90;;;;;;5039887;28;20481;-72
2023/01/23 07:04:36;;;;;;;66.65;32.13;;;3.90;99.90;;;;;;5051262;28;20040;-72
2023/01/23 07:07:03;;;;;;;76.82;33.28;;;4.00;99.90;;;;;;5051846;28;20037;-72
2023/01/23 07:09:28;;;;;;;80.75;34.10;;;4.00;99.90;;;;;;5051568;28;20539;-72
2023/01/23 07:11:54;;;;;;;73.70;32.58;;;4.00;99.90;;;;;;5052262;28;20024;-71
2023/01/23 07:14:19;;;;;;;70.57;30.60;;;4.00;99.90;;;;;;5053157;28;20043;-71
2023/01/23 07:16:45;;;;;;;77.53;33.20;;;4.00;99.90;;;;;;5055427;28;20052;-72
2023/01/23 07:19:11;;;;;;;79.35;30.63;;;4.00;99.90;;;;;;5053432;28;20025;-72
2023/01/23 07:21:37;;;;;;;75.20;30.35;;;4.00;99.90;;;;;;5055418;28;20033;-72
2023/01/23 07:24:02;;;;;;;74.38;30.50;;;4.00;99.90;;;;;;5060924;28;20040;-72
2023/01/23 07:26:28;;;;;;;74.78;30.55;;;4.00;99.90;;;;;;5051494;28;20071;-72
2023/01/23 07:28:54;;;;;;;69.97;30.02;;;4.00;99.90;;;;;;5051778;28;20024;-72
2023/01/23 07:31:19;;;;;;;75.45;29.73;;;4.00;99.90;;;;;;5053020;28;20087;-72
2023/01/23 07:33:46;;;;;;;73.50;30.65;;;4.00;99.90;;;;;;5049010;28;20052;-72
2023/01/23 07:36:12;;;;;;;73.47;30.33;;;4.00;99.90;;;;;;5045073;28;20466;-72
2023/01/23 07:38:38;;;;;;;84.70;33.00;;;4.00;99.90;;;;;;5033820;28;20113;-71
2023/01/23 07:41:04;;;;;;;73.68;29.73;;;4.10;99.90;;;;;;5033572;28;20541;-71
2023/01/23 07:43:30;;;;;;;73.82;29.95;;;4.00;99.90;;;;;;5034785;28;20037;-72
2023/01/23 07:45:58;;;;;;;76.30;31.55;;;4.00;99.90;;;;;;5045900;28;20040;-71
2023/01/23 07:48:24;;;;;;;81.05;31.67;;;3.90;99.90;;;;;;5053967;28;20096;-72
2023/01/23 07:50:49;;;;;;;74.85;32.25;;;4.00;99.90;;;;;;5052934;28;20104;-72
2023/01/23 07:53:15;;;;;;;73.00;30.02;;;4.00;99.90;;;;;;5053934;28;20496;-72
2023/01/23 07:55:40;;;;;;;69.13;30.70;;;4.00;99.90;;;;;;5043921;28;20059;-72
2023/01/23 07:58:06;;;;;;;82.72;33.63;;;4.00;99.90;;;;;;5033265;28;20018;-72
2023/01/23 08:00:33;;;;;;;74.88;32.88;;;4.00;99.90;;;;;;5043509;28;20022;-72
2023/01/23 08:02:58;;;;;;;74.32;30.95;;;4.10;99.90;;;;;;5040173;28;20028;-71
2023/01/23 08:05:24;;;;;;;83.20;35.33;;;4.10;99.90;;;;;;5031989;28;20037;-72
2023/01/23 08:07:50;;;;;;;81.72;34.17;;;4.10;99.90;;;;;;5034058;28;20075;-71
2023/01/23 08:10:16;;;;;;;84.13;32.33;;;4.00;99.90;;;;;;5042684;28;20376;-71
2023/01/23 08:12:41;;;;;;;74.90;32.38;;;4.00;99.90;;;;;;5041439;28;20032;-71
2023/01/23 08:15:07;;;;;;;78.75;32.30;;;4.00;99.90;;;;;;5033222;28;20850;-71
2023/01/23 08:17:33;;;;;;;78.38;31.88;;;4.10;99.90;;;;;;5034064;28;20034;-71
2023/01/23 08:19:59;;;;;;;71.75;31.73;;;4.10;99.90;;;;;;5037928;28;20036;-72
2023/01/23 08:22:24;;;;;;;85.32;34.42;;;4.10;99.90;;;;;;5033513;28;20572;-72
2023/01/23 08:24:50;;;;;;;68.70;29.67;;;4.00;99.90;;;;;;5017592;28;20065;-73
2023/01/23 08:27:16;;;;;;;79.85;30.92;;;4.00;99.90;;;;;;5044624;28;20028;-73
2023/01/23 08:29:41;;;;;;;80.50;30.70;;;4.10;99.90;;;;;;5046860;28;20096;-71
2023/01/23 08:32:07;;;;;;;69.88;29.13;;;4.10;99.90;;;;;;5045755;28;20043;-71
2023/01/23 08:34:32;;;;;;;66.43;28.63;;;4.20;99.90;;;;;;5047976;28;20366;-70
2023/01/23 08:36:58;;;;;;;76.47;32.08;;;4.20;99.90;;;;;;5046487;28;20060;-74
2023/01/23 08:39:24;;;;;;;73.95;30.55;;;4.20;99.90;;;;;;5047846;28;20416;-72
2023/01/23 08:41:50;;;;;;;81.68;32.35;;;4.20;99.90;;;;;;5046056;28;20025;-72
2023/01/23 08:44:15;;;;;;;83.43;33.50;;;4.20;99.90;;;;;;5048934;28;20473;-72
2023/01/23 08:46:42;;;;;;;86.15;35.13;;;4.30;99.90;;;;;;5048088;28;20044;-72
2023/01/23 08:49:07;;;;;;;82.13;36.63;;;4.30;99.90;;;;;;5047286;28;20488;-72
2023/01/23 08:51:33;;;;;;;81.30;34.20;;;4.30;99.90;;;;;;5047899;28;20037;-73
2023/01/23 08:53:58;;;;;;;85.05;35.33;;;4.40;99.90;;;;;;5047862;28;20078;-72
2023/01/23 08:56:25;;;;;;;77.85;34.53;;;4.40;99.90;;;;;;5027409;28;20032;-73
2023/01/23 08:58:51;;;;;;;82.82;34.53;;;4.40;99.90;;;;;;5035438;28;20021;-72
2023/01/23 09:01:22;;;;;;;74.07;33.38;;;4.40;99.90;;;;;;5048248;28;20517;-72
2023/01/23 09:03:48;;;;;;;79.27;35.07;;;4.40;99.90;;;;;;5045629;28;20036;-71
2023/01/23 09:06:16;;;;;;;77.70;34.08;;;4.40;99.90;;;;;;5047861;28;20303;-73
2023/01/23 09:08:43;;;;;;;72.05;32.20;;;4.40;99.90;;;;;;5046403;28;20025;-71
2023/01/23 09:11:10;;;;;;;79.80;34.22;;;4.40;99.90;;;;;;5046888;28;20365;-72
2023/01/23 09:13:36;;;;;;;78.63;32.67;;;4.50;99.90;;;;;;5048800;28;20025;-72
2023/01/23 09:16:02;;;;;;;76.10;32.92;;;4.40;99.90;;;;;;5048873;28;20017;-73
2023/01/23 09:18:28;;;;;;;69.82;31.77;;;4.50;99.90;;;;;;5047469;28;20101;-72
2023/01/23 09:20:54;;;;;;;70.30;32.25;;;4.50;99.90;;;;;;5047186;28;20032;-73
2023/01/23 09:23:21;;;;;;;69.15;31.13;;;4.50;99.90;;;;;;5048016;28;20051;-72
2023/01/23 09:25:46;;;;;;;67.13;29.70;;;4.50;99.90;;;;;;5045733;28;20112;-73
2023/01/23 09:28:12;;;;;;;78.95;32.30;;;4.60;99.90;;;;;;5047831;28;20096;-72
2023/01/23 09:30:38;;;;;;;70.50;31.83;;;4.60;99.90;;;;;;5047356;28;20021;-71
2023/01/23 09:33:04;;;;;;;67.32;31.23;;;4.60;99.90;;;;;;5047253;28;20027;-72
2023/01/23 09:35:30;;;;;;;70.78;31.77;;;4.60;99.90;;;;;;5046097;28;20036;-71
2023/01/23 09:37:58;;;;;;;70.60;31.75;;;4.60;99.90;;;;;;5047278;28;20025;-71
2023/01/23 09:40:30;;;;;;;69.93;31.27;;;4.60;99.90;;;;;;5047710;28;20469;-72
2023/01/23 09:43:01;;;;;;;68.43;29.13;;;4.60;99.90;;;;;;5047217;28;20028;-71
2023/01/23 09:45:27;;;;;;;67.95;30.08;;;4.50;99.90;;;;;;5046023;28;20458;-71
2023/01/23 09:48:17;;;;;;;64.72;29.33;;;4.50;99.90;;;;;;5047217;28;20056;-71
2023/01/23 09:51:03;;;;;;;64.20;28.33;;;4.60;99.90;;;;;;5047890;28;20028;-71
2023/01/23 09:53:35;;;;;;;59.42;28.90;;;4.60;99.90;;;;;;5047446;28;20021;-70
2023/01/23 09:56:16;;;;;;;63.22;28.55;;;4.60;99.90;;;;;;5046148;28;20071;-72
2023/01/23 09:59:37;;;;;;;63.38;29.48;;;4.70;99.90;;;;;;5047530;28;20017;-72
2023/01/23 10:02:14;;;;;;;60.67;28.83;;;4.70;99.90;;;;;;5035683;28;20051;-72
2023/01/23 10:04:39;;;;;;;63.88;29.73;;;4.70;99.90;;;;;;5047752;28;20028;-73
2023/01/23 10:07:30;;;;;;;67.15;31.25;;;4.70;99.90;;;;;;5047579;28;20037;-72
2023/01/23 10:10:17;;;;;;;65.05;30.88;;;4.80;99.90;;;;;;5047609;28;20020;-74
2023/01/23 10:13:10;;;;;;;58.20;27.98;;;4.80;99.90;;;;;;5048616;28;20048;-73
2023/01/23 10:16:25;;;;;;;61.83;29.55;;;4.80;99.90;;;;;;5046736;28;20103;-73
2023/01/23 10:19:13;;;;;;;62.33;29.38;;;4.80;99.90;;;;;;5043428;28;20043;-73
2023/01/23 10:21:48;;;;;;;63.55;30.55;;;4.80;99.90;;;;;;5047019;28;20094;-73
2023/01/23 10:24:45;;;;;;;63.95;29.13;;;4.90;99.90;;;;;;5043391;28;20009;-73
2023/01/23 10:27:20;;;;;;;62.60;31.33;;;4.90;99.90;;;;;;5042912;28;20127;-73
2023/01/23 10:30:12;;;;;;;63.20;29.63;;;4.90;99.90;;;;;;5047915;28;20021;-74
2023/01/23 10:32:58;;;;;;;56.47;28.75;;;4.90;99.90;;;;;;5045198;28;20079;-72
2023/01/23 10:35:50;;;;;;;58.20;27.20;;;4.90;99.90;;;;;;5047156;28;20037;-72
2023/01/23 10:38:38;;;;;;;60.72;27.33;;;5.00;99.90;;;;;;5046829;28;20108;-73
2023/01/23 10:41:18;;;;;;;61.95;29.02;;;5.00;99.90;;;;;;5047763;28;20021;-74
2023/01/23 10:43:46;;;;;;;60.28;29.33;;;5.00;99.90;;;;;;5046519;28;20020;-73
2023/01/23 10:46:40;;;;;;;57.42;28.33;;;5.00;99.90;;;;;;5046918;28;20040;-73
2023/01/23 10:49:06;;;;;;;59.38;28.52;;;5.00;99.90;;;;;;5049953;28;20059;-72
2023/01/23 10:51:37;;;;;;;54.53;26.27;;;5.00;99.90;;;;;;5050657;28;20021;-72
2023/01/23 10:54:10;;;;;;;60.67;29.40;;;5.00;99.90;;;;;;5050655;28;20373;-72
2023/01/23 10:56:51;;;;;;;60.05;27.23;;;5.00;99.90;;;;;;5049121;28;20017;-73
2023/01/23 10:59:26;;;;;;;57.63;28.48;;;5.00;99.90;;;;;;5048281;28;20565;-72
2023/01/23 11:02:17;;;;;;;56.28;28.80;;;5.00;99.90;;;;;;5049787;28;20048;-72
2023/01/23 11:04:46;;;;;;;61.38;29.35;;;5.10;99.90;;;;;;5048058;28;20093;-73
2023/01/23 11:07:35;;;;;;;58.70;27.98;;;5.10;99.90;;;;;;5049848;28;20033;-73
2023/01/23 11:10:17;;;;;;;55.47;27.00;;;5.10;99.90;;;;;;5049376;28;20037;-73
2023/01/23 11:12:52;;;;;;;58.40;29.27;;;5.10;99.90;;;;;;5050743;28;20021;-73
2023/01/23 11:15:27;;;;;;;53.78;28.55;;;5.20;99.90;;;;;;5050909;28;20021;-74
2023/01/23 11:17:59;;;;;;;53.35;27.20;;;5.20;99.90;;;;;;5049712;28;20055;-72
2023/01/23 11:20:34;;;;;;;58.28;28.27;;;5.20;99.90;;;;;;5049439;28;20028;-72
2023/01/23 11:23:01;;;;;;;63.72;29.02;;;5.30;99.90;;;;;;5047816;28;20043;-72
2023/01/23 11:25:33;;;;;;;58.70;30.15;;;5.30;99.90;;;;;;5048540;28;20082;-72
2023/01/23 11:28:01;;;;;;;56.33;28.83;;;5.30;99.90;;;;;;5050504;28;20056;-72
2023/01/23 11:30:35;;;;;;;54.15;28.30;;;5.30;99.90;;;;;;5044356;28;20029;-71
2023/01/23 11:33:26;;;;;;;59.40;29.88;;;5.30;99.90;;;;;;5049992;28;20543;-74
2023/01/23 11:36:16;;;;;;;60.65;30.38;;;5.40;99.90;;;;;;5048757;28;20561;-74
2023/01/23 11:39:02;;;;;;;50.70;27.65;;;5.30;99.90;;;;;;5048795;28;20548;-73
2023/01/23 11:41:33;;;;;;;55.85;28.02;;;5.20;99.90;;;;;;5050928;28;20028;-71
2023/01/23 11:44:07;;;;;;;53.75;27.45;;;5.20;99.90;;;;;;5048402;28;20119;-72
2023/01/23 11:46:49;;;;;;;58.08;31.17;;;5.30;99.90;;;;;;5048857;28;20048;-71
2023/01/23 11:49:26;;;;;;;55.70;27.58;;;5.20;99.90;;;;;;5049258;28;20021;-71
2023/01/23 11:52:23;;;;;;;58.13;30.23;;;5.20;99.90;;;;;;5049069;28;20041;-72
2023/01/23 11:55:24;;;;;;;51.90;27.88;;;5.20;99.90;;;;;;5050193;28;20528;-71
2023/01/23 11:58:13;;;;;;;60.65;28.23;;;5.10;99.90;;;;;;5047885;28;20477;-71
2023/01/23 12:00:44;;;;;;;50.10;25.58;;;5.20;99.90;;;;;;5048983;28;20025;-72
2023/01/23 12:03:27;;;;;;;55.67;27.27;;;5.10;99.90;;;;;;5049520;28;20419;-71
2023/01/23 12:06:05;;;;;;;49.08;24.95;;;5.10;99.90;;;;;;5048635;28;20037;-70
2023/01/23 12:09:02;;;;;;;54.72;28.20;;;5.20;99.90;;;;;;5049059;28;20021;-71
2023/01/23 12:11:38;;;;;;;55.95;28.38;;;5.10;99.90;;;;;;5047680;28;21038;-71
2023/01/23 12:14:24;;;;;;;60.03;29.08;;;5.10;99.90;;;;;;5047569;28;20021;-70
2023/01/23 12:17:07;;;;;;;57.20;27.35;;;5.10;99.90;;;;;;5048098;28;20036;-70
2023/01/23 12:19:59;;;;;;;57.90;28.40;;;5.10;99.90;;;;;;5046872;28;20025;-72
2023/01/23 12:22:49;;;;;;;58.92;29.35;;;5.10;99.90;;;;;;5048218;28;20123;-71
2023/01/23 12:25:35;;;;;;;58.65;27.75;;;5.10;99.90;;;;;;5045668;28;20152;-72
2023/01/23 12:28:03;;;;;;;56.47;27.70;;;5.10;99.90;;;;;;5049102;28;20539;-72
2023/01/23 12:30:48;;;;;;;57.97;28.00;;;5.00;99.90;;;;;;5048050;28;20033;-71
2023/01/23 12:33:34;;;;;;;56.13;28.23;;;5.10;99.90;;;;;;5049133;28;20098;-69
2023/01/23 12:36:10;;;;;;;57.30;28.27;;;5.10;99.90;;;;;;5043731;28;20090;-72
2023/01/23 12:39:09;;;;;;;65.43;29.80;;;5.20;99.90;;;;;;5049339;28;20033;-71
2023/01/23 12:41:46;;;;;;;59.13;28.98;;;5.10;99.90;;;;;;5048262;28;20116;-72
2023/01/23 12:44:21;;;;;;;62.28;28.55;;;5.10;99.90;;;;;;5048962;28;20020;-69
2023/01/23 12:47:06;;;;;;;55.90;28.23;;;5.10;99.90;;;;;;5046563;28;20515;-70
2023/01/23 12:49:42;;;;;;;63.17;30.00;;;5.10;99.90;;;;;;5047449;28;20473;-70
2023/01/23 12:52:12;;;;;;;56.58;28.15;;;5.00;99.90;;;;;;5046631;28;20071;-70
2023/01/23 12:55:22;;;;;;;60.15;29.98;;;5.00;99.90;;;;;;5047865;28;20036;-70
2023/01/23 12:57:53;;;;;;;54.72;26.42;;;4.90;99.90;;;;;;5047929;28;20411;-71
2023/01/23 13:00:51;;;;;;;57.75;27.52;;;5.00;99.90;;;;;;5047210;28;20082;-71